createdAt,value
2022-11-29T00:00:30.168Z,13.60
2022-11-29T00:02:59.983Z,13.27
2022-11-29T00:05:30.558Z,12.33
2022-11-29T00:08:00.470Z,12.63
2022-11-29T00:10:30.261Z,12.57
2022-11-29T00:13:00.110Z,14.37
2022-11-29T00:15:29.912Z,12.23
2022-11-29T00:18:00.034Z,13.43
2022-11-29T00:20:29.911Z,12.17
2022-11-29T00:23:01.054Z,10.83
2022-11-29T00:25:30.843Z,12.07
2022-11-29T00:28:00.723Z,12.40
2022-11-29T00:30:30.877Z,12.03
2022-11-29T00:33:03.115Z,10.93
2022-11-29T00:35:33.587Z,11.88
2022-11-29T00:38:03.661Z,11.80
2022-11-29T00:40:33.802Z,12.53
2022-11-29T00:43:03.814Z,13.07
2022-11-29T00:45:33.734Z,10.07
2022-11-29T00:48:03.898Z,12.40
2022-11-29T00:50:33.677Z,12.27
2022-11-29T00:53:07.692Z,12.80
2022-11-29T00:55:37.492Z,12.33
2022-11-29T00:58:07.482Z,13.10
2022-11-29T01:00:37.664Z,12.33
2022-11-29T01:03:07.375Z,13.50
2022-11-29T01:05:37.245Z,11.67
2022-11-29T01:08:07.269Z,13.67
2022-11-29T01:10:37.156Z,13.07
2022-11-29T01:13:07.239Z,12.67
2022-11-29T01:15:37.632Z,12.80
2022-11-29T01:18:07.164Z,11.80
2022-11-29T01:20:36.993Z,13.13
2022-11-29T01:23:06.992Z,12.90
2022-11-29T01:25:36.819Z,12.33
2022-11-29T01:28:06.833Z,12.77
2022-11-29T01:30:38.530Z,12.87
2022-11-29T01:33:08.346Z,12.70
2022-11-29T01:35:38.167Z,12.80
2022-11-29T01:38:07.838Z,12.63
2022-11-29T01:40:37.690Z,11.67
2022-11-29T01:43:16.584Z,11.83
2022-11-29T01:45:50.250Z,14.93
2022-11-29T01:48:21.520Z,12.23
2022-11-29T01:50:51.854Z,11.93
2022-11-29T01:53:22.424Z,14.28
2022-11-29T01:55:57.772Z,9.60
2022-11-29T01:58:28.360Z,12.10
2022-11-29T02:00:59.812Z,11.77
2022-11-29T02:03:29.952Z,11.97
2022-11-29T02:06:00.537Z,16.17
2022-11-29T02:08:36.615Z,12.90
2022-11-29T02:11:46.752Z,11.77
2022-11-29T02:14:33.813Z,12.07
2022-11-29T02:17:06.682Z,12.50
2022-11-29T02:19:45.471Z,11.60
2022-11-29T02:22:33.075Z,12.00
2022-11-29T02:25:08.909Z,13.57
2022-11-29T02:28:05.419Z,13.27
2022-11-29T02:30:47.189Z,10.30
2022-11-29T02:33:32.035Z,12.57
2022-11-29T02:36:11.068Z,12.37
2022-11-29T02:38:49.981Z,10.53
2022-11-29T02:41:56.019Z,11.37
2022-11-29T02:44:34.634Z,11.23
2022-11-29T02:47:10.302Z,11.33
2022-11-29T02:49:55.059Z,10.77
2022-11-29T02:52:36.647Z,10.80
2022-11-29T02:55:09.791Z,9.50
2022-11-29T02:57:51.872Z,9.27
2022-11-29T03:00:23.480Z,10.30
2022-11-29T03:03:10.906Z,11.17
2022-11-29T03:05:52.358Z,10.87
2022-11-29T03:08:56.499Z,10.25
2022-11-29T03:11:37.936Z,11.87
2022-11-29T03:14:30.039Z,11.23
2022-11-29T03:17:15.163Z,10.72
2022-11-29T03:20:03.740Z,10.53
2022-11-29T03:22:51.038Z,10.87
2022-11-29T03:25:58.932Z,10.90
2022-11-29T03:28:31.872Z,10.40
2022-11-29T03:31:21.216Z,10.77
2022-11-29T03:33:54.063Z,10.57
2022-11-29T03:36:45.369Z,10.90
2022-11-29T03:41:54.490Z,9.38
2022-11-29T03:44:38.519Z,11.23
2022-11-29T03:47:13.875Z,9.90
2022-11-29T03:49:58.692Z,10.88
2022-11-29T03:52:56.003Z,10.63
2022-11-29T03:55:50.472Z,10.50
2022-11-29T03:58:28.770Z,11.77
2022-11-29T04:01:07.288Z,10.80
2022-11-29T04:03:59.765Z,9.97
2022-11-29T04:06:41.689Z,11.73
2022-11-29T04:09:20.399Z,12.13
2022-11-29T04:12:05.271Z,10.23
2022-11-29T04:14:54.889Z,12.33
2022-11-29T04:17:39.755Z,11.15
2022-11-29T04:20:48.377Z,10.37
2022-11-29T04:23:29.456Z,11.10
2022-11-29T04:26:08.036Z,10.53
2022-11-29T04:28:40.884Z,10.53
2022-11-29T04:31:31.284Z,10.20
2022-11-29T04:34:20.183Z,10.17
2022-11-29T04:37:17.032Z,12.40
2022-11-29T04:40:04.839Z,10.45
2022-11-29T04:42:46.487Z,10.43
2022-11-29T04:45:30.900Z,9.30
2022-11-29T04:48:10.221Z,11.05
2022-11-29T04:50:43.054Z,10.13
2022-11-29T04:53:15.559Z,10.53
2022-11-29T04:56:00.458Z,10.07
2022-11-29T04:58:48.580Z,9.33
2022-11-29T05:01:24.725Z,10.67
2022-11-29T05:04:21.837Z,10.00
2022-11-29T05:07:13.740Z,12.60
2022-11-29T05:09:49.621Z,10.33
2022-11-29T05:12:40.188Z,12.23
2022-11-29T05:15:32.578Z,9.80
2022-11-29T05:18:23.644Z,9.87
2022-11-29T05:21:05.225Z,8.85
2022-11-29T05:23:54.560Z,9.33
2022-11-29T05:26:50.055Z,9.83
2022-11-29T05:29:43.636Z,10.57
2022-11-29T05:32:22.066Z,11.30
2022-11-29T05:35:31.348Z,9.73
2022-11-29T05:38:10.427Z,10.10
2022-11-29T05:40:43.568Z,8.98
2022-11-29T05:43:49.770Z,10.47
2022-11-29T05:46:31.332Z,10.32
2022-11-29T05:49:09.826Z,8.97
2022-11-29T05:52:01.963Z,10.17
2022-11-29T05:54:37.835Z,10.97
2022-11-29T05:57:19.001Z,10.47
2022-11-29T05:59:51.191Z,8.63
2022-11-29T06:02:48.641Z,10.23
2022-11-29T06:05:24.492Z,10.05
2022-11-29T06:08:15.335Z,10.00
2022-11-29T06:10:53.726Z,8.40
2022-11-29T06:13:29.292Z,8.47
2022-11-29T06:16:27.643Z,10.07
2022-11-29T06:19:32.275Z,9.23
2022-11-29T06:22:25.861Z,9.27
2022-11-29T06:25:21.598Z,9.80
2022-11-29T06:28:11.346Z,8.68
2022-11-29T06:31:02.211Z,9.23
2022-11-29T06:33:55.798Z,10.00
2022-11-29T06:36:35.278Z,10.07
2022-11-29T06:39:06.754Z,10.00
2022-11-29T06:41:36.912Z,9.87
2022-11-29T06:44:07.535Z,7.93
2022-11-29T06:46:52.231Z,10.43
2022-11-29T06:49:27.993Z,8.78
2022-11-29T06:52:15.688Z,8.67
2022-11-29T06:54:51.086Z,10.50
2022-11-29T06:57:32.981Z,8.37
2022-11-29T07:00:08.815Z,9.07
2022-11-29T07:02:47.199Z,9.53
2022-11-29T07:05:22.839Z,10.63
2022-11-29T07:07:55.700Z,9.03
2022-11-29T07:10:27.709Z,8.80
2022-11-29T07:12:58.061Z,9.60
2022-11-29T07:15:28.269Z,8.47
2022-11-29T07:18:03.848Z,9.17
2022-11-29T07:20:36.969Z,9.10
2022-11-29T07:23:15.961Z,9.73
2022-11-29T07:26:11.907Z,10.43
2022-11-29T07:29:01.795Z,10.50
2022-11-29T07:31:37.483Z,9.47
2022-11-29T07:34:36.195Z,10.87
2022-11-29T07:37:32.080Z,10.33
2022-11-29T07:40:04.650Z,10.00
2022-11-29T07:42:55.783Z,10.70
2022-11-29T07:45:36.156Z,11.57
2022-11-29T07:48:07.072Z,11.70
2022-11-29T07:50:36.950Z,10.80
2022-11-29T07:53:06.923Z,10.53
2022-11-29T07:55:37.369Z,11.40
2022-11-29T07:58:07.091Z,11.40
2022-11-29T08:00:36.904Z,10.53
2022-11-29T08:03:07.276Z,11.00
2022-11-29T08:05:38.468Z,10.90
2022-11-29T08:08:08.578Z,11.70
2022-11-29T08:10:39.145Z,11.03
2022-11-29T08:13:08.684Z,9.00
2022-11-29T08:15:39.975Z,10.10
2022-11-29T08:18:09.758Z,10.90
2022-11-29T08:20:41.741Z,10.32
2022-11-29T08:23:13.637Z,9.77
2022-11-29T08:25:43.695Z,10.83
2022-11-29T08:28:13.555Z,11.77
2022-11-29T08:30:43.401Z,10.07
2022-11-29T08:33:13.248Z,10.98
2022-11-29T08:35:43.047Z,11.93
2022-11-29T08:38:12.823Z,10.10
2022-11-29T08:40:42.620Z,11.17
2022-11-29T08:43:12.460Z,11.37
2022-11-29T08:45:42.318Z,10.37
2022-11-29T08:48:13.688Z,11.10
2022-11-29T08:50:43.494Z,11.03
2022-11-29T08:53:31.153Z,11.40
2022-11-29T08:56:08.492Z,11.27
2022-11-29T08:58:33.561Z,10.32
2022-11-29T09:01:03.480Z,10.80
2022-11-29T09:03:53.207Z,10.60
2022-11-29T09:06:22.950Z,9.43
2022-11-29T09:08:52.739Z,10.33
2022-11-29T09:11:23.530Z,9.97
2022-11-29T09:13:56.599Z,11.30
2022-11-29T09:16:29.048Z,10.57
2022-11-29T09:18:59.143Z,11.00
2022-11-29T09:21:31.535Z,10.60
2022-11-29T09:24:05.689Z,9.50
2022-11-29T09:26:38.190Z,9.90
2022-11-29T09:29:08.344Z,11.10
2022-11-29T09:31:38.737Z,10.43
2022-11-29T09:34:08.569Z,10.20
2022-11-29T09:36:38.356Z,9.47
2022-11-29T09:39:09.858Z,11.17
2022-11-29T09:42:03.591Z,10.50
2022-11-29T09:44:53.118Z,9.98
2022-11-29T09:47:37.095Z,10.73
2022-11-29T09:50:24.873Z,10.60
2022-11-29T09:53:06.757Z,10.30
2022-11-29T09:56:02.266Z,10.17
2022-11-29T09:58:37.063Z,10.07
2022-11-29T10:01:09.887Z,10.70
2022-11-29T10:03:46.458Z,11.00
2022-11-29T10:06:27.823Z,8.57
2022-11-29T10:09:03.293Z,9.63
2022-11-29T10:11:36.157Z,9.27
2022-11-29T10:14:18.130Z,9.83
2022-11-29T10:17:08.626Z,10.50
2022-11-29T10:19:41.800Z,10.93
2022-11-29T10:22:19.890Z,10.53
2022-11-29T10:24:53.051Z,9.00
2022-11-29T10:27:26.254Z,9.70
2022-11-29T10:29:56.739Z,10.20
2022-11-29T10:32:28.406Z,9.77
2022-11-29T10:35:00.356Z,9.97
2022-11-29T10:37:32.887Z,9.07
2022-11-29T10:40:07.723Z,10.77
2022-11-29T10:42:52.625Z,9.77
2022-11-29T10:45:31.655Z,9.80
2022-11-29T10:48:19.311Z,10.60
2022-11-29T10:50:51.028Z,10.30
2022-11-29T10:53:27.040Z,11.23
2022-11-29T10:56:12.092Z,10.93
2022-11-29T10:58:57.133Z,11.30
2022-11-29T11:01:29.090Z,9.83
2022-11-29T11:04:03.384Z,9.65
2022-11-29T11:06:48.486Z,10.27
2022-11-29T11:09:30.031Z,9.17
2022-11-29T11:12:02.655Z,9.27
2022-11-29T11:14:37.504Z,10.33
2022-11-29T11:17:26.420Z,9.87
2022-11-29T11:20:00.711Z,10.33
2022-11-29T11:22:32.567Z,10.40
2022-11-29T11:25:13.855Z,9.27
2022-11-29T11:27:43.769Z,9.20
2022-11-29T11:30:28.104Z,9.98
2022-11-29T11:33:17.216Z,10.63
2022-11-29T11:36:06.564Z,9.17
2022-11-29T11:38:41.386Z,9.73
2022-11-29T11:41:22.826Z,10.20
2022-11-29T11:43:55.990Z,9.07
2022-11-29T11:46:47.491Z,9.27
2022-11-29T11:49:32.111Z,9.93
2022-11-29T11:52:02.571Z,9.40
2022-11-29T11:54:32.763Z,9.47
2022-11-29T11:57:02.522Z,9.40
2022-11-29T11:59:32.289Z,9.10
2022-11-29T12:02:02.119Z,10.57
2022-11-29T12:04:38.074Z,11.00
2022-11-29T12:07:13.373Z,10.30
2022-11-29T12:09:52.076Z,10.57
2022-11-29T12:12:30.757Z,10.85
2022-11-29T12:15:21.640Z,9.68
2022-11-29T12:17:54.458Z,9.20
2022-11-29T12:20:28.248Z,10.23
2022-11-29T12:23:16.434Z,9.70
2022-11-29T12:25:55.336Z,10.17
2022-11-29T12:28:30.652Z,10.10
2022-11-29T12:31:20.242Z,10.50
2022-11-29T12:34:02.248Z,11.77
2022-11-29T12:36:40.900Z,12.43
2022-11-29T12:39:13.635Z,10.30
2022-11-29T12:41:53.784Z,9.03
2022-11-29T12:44:40.285Z,11.30
2022-11-29T12:47:36.131Z,10.90
2022-11-29T12:49:56.491Z,9.73
2022-11-29T12:52:38.702Z,10.03
2022-11-29T12:55:20.494Z,9.77
2022-11-29T12:58:04.695Z,10.93
2022-11-29T13:00:37.861Z,10.85
2022-11-29T13:03:10.481Z,11.17
2022-11-29T13:05:58.190Z,10.60
2022-11-29T13:08:30.999Z,9.90
2022-11-29T13:11:19.905Z,11.40
2022-11-29T13:17:00.567Z,11.97
2022-11-29T13:19:42.636Z,12.50
2022-11-29T13:22:21.191Z,10.78
2022-11-29T13:24:57.089Z,10.88
2022-11-29T13:27:30.241Z,10.35
2022-11-29T13:30:01.990Z,10.50
2022-11-29T13:32:43.873Z,10.87
2022-11-29T13:35:19.313Z,10.43
2022-11-29T13:38:06.704Z,9.73
2022-11-29T13:41:00.912Z,10.37
2022-11-29T13:43:42.752Z,10.28
2022-11-29T13:46:20.861Z,9.13
2022-11-29T13:48:54.025Z,9.43
2022-11-29T13:51:35.399Z,10.63
2022-11-29T13:54:09.251Z,10.03
2022-11-29T13:56:48.326Z,10.20
2022-11-29T13:59:24.029Z,8.60
2022-11-29T14:01:54.856Z,9.40
2022-11-29T14:04:28.009Z,10.88
2022-11-29T14:07:19.717Z,9.57
2022-11-29T14:10:07.992Z,10.07
2022-11-29T14:12:46.646Z,9.63
2022-11-29T14:15:32.094Z,8.95
2022-11-29T14:18:06.257Z,9.90
2022-11-29T14:20:44.984Z,9.53
2022-11-29T14:23:17.835Z,11.27
2022-11-29T14:26:03.241Z,8.78
2022-11-29T14:28:36.552Z,9.77
2022-11-29T14:31:09.299Z,8.80
2022-11-29T14:33:51.323Z,9.20
2022-11-29T14:36:48.133Z,8.90
2022-11-29T14:39:27.277Z,8.03
2022-11-29T14:42:06.501Z,10.33
2022-11-29T14:44:39.300Z,8.30
2022-11-29T14:47:29.070Z,9.10
2022-11-29T14:50:01.378Z,8.47
2022-11-29T14:52:43.220Z,11.27
2022-11-29T14:55:24.054Z,10.13
2022-11-29T14:58:06.275Z,10.38
2022-11-29T15:00:50.571Z,10.33
2022-11-29T15:03:32.460Z,11.20
2022-11-29T15:06:08.647Z,8.87
2022-11-29T15:08:48.000Z,9.20
2022-11-29T15:11:26.174Z,9.67
2022-11-29T15:14:08.665Z,8.77
2022-11-29T15:16:47.533Z,9.65
2022-11-29T15:19:36.653Z,9.43
2022-11-29T15:22:18.931Z,8.93
2022-11-29T15:25:01.123Z,10.13
2022-11-29T15:27:31.248Z,10.90
2022-11-29T15:30:21.999Z,10.70
2022-11-29T15:32:51.669Z,10.33
2022-11-29T15:35:22.373Z,12.03
2022-11-29T15:37:54.266Z,12.47
2022-11-29T15:40:28.476Z,10.10
2022-11-29T15:43:01.994Z,10.60
2022-11-29T15:45:37.948Z,11.10
2022-11-29T15:48:19.820Z,10.93
2022-11-29T15:50:58.171Z,10.10
2022-11-29T15:53:43.377Z,10.83
2022-11-29T15:56:32.489Z,10.50
2022-11-29T15:59:05.168Z,9.90
2022-11-29T16:01:35.960Z,10.03
2022-11-29T16:04:06.804Z,11.47
2022-11-29T16:06:42.435Z,10.83
2022-11-29T16:09:18.100Z,10.37
2022-11-29T16:11:49.514Z,12.03
2022-11-29T16:14:24.751Z,11.40
2022-11-29T16:16:58.073Z,12.27
2022-11-29T16:19:31.256Z,12.70
2022-11-29T16:22:15.011Z,12.30
2022-11-29T16:24:56.587Z,14.03
2022-11-29T16:27:34.969Z,11.80
2022-11-29T16:30:08.888Z,12.47
2022-11-29T16:32:47.259Z,12.87
2022-11-29T16:35:33.428Z,13.50
2022-11-29T16:38:08.646Z,12.28
2022-11-29T16:40:39.795Z,13.47
2022-11-29T16:43:26.143Z,15.68
2022-11-29T16:46:26.493Z,14.47
2022-11-29T16:48:58.653Z,12.73
2022-11-29T16:51:38.988Z,10.93
2022-11-29T16:54:23.836Z,13.40
2022-11-29T16:56:56.226Z,11.77
2022-11-29T16:59:28.642Z,11.18
2022-11-29T17:01:58.693Z,11.70
2022-11-29T17:04:29.033Z,10.82
2022-11-29T17:06:59.174Z,10.77
2022-11-29T17:09:33.101Z,12.30
2022-11-29T17:12:03.981Z,12.00
2022-11-29T17:14:33.842Z,12.93
2022-11-29T17:17:04.363Z,12.77
2022-11-29T17:19:34.012Z,11.50
2022-11-29T17:22:04.993Z,12.67
2022-11-29T17:24:35.802Z,10.80
2022-11-29T17:27:06.701Z,10.72
2022-11-29T17:29:36.783Z,11.50
2022-11-29T17:32:06.890Z,13.13
2022-11-29T17:34:37.121Z,11.87
2022-11-29T17:37:07.343Z,11.67
2022-11-29T17:39:39.197Z,12.43
2022-11-29T17:42:12.766Z,13.00
2022-11-29T17:44:44.893Z,11.30
2022-11-29T17:47:22.501Z,11.45
2022-11-29T17:49:52.425Z,13.37
2022-11-29T17:52:22.411Z,11.78
2022-11-29T17:54:52.181Z,11.37
2022-11-29T17:57:26.259Z,10.90
2022-11-29T17:59:56.648Z,11.80
2022-11-29T18:02:26.539Z,10.23
2022-11-29T18:04:57.352Z,10.37
2022-11-29T18:07:27.759Z,12.27
2022-11-29T18:09:58.764Z,12.50
2022-11-29T18:12:28.786Z,10.03
2022-11-29T18:15:00.893Z,10.33
2022-11-29T18:17:30.932Z,10.33
2022-11-29T18:20:01.744Z,12.30
2022-11-29T18:22:31.631Z,11.70
2022-11-29T18:25:36.493Z,10.93
2022-11-29T18:27:36.105Z,10.23
2022-11-29T18:30:09.544Z,10.57
2022-11-29T18:32:39.687Z,9.58
2022-11-29T18:35:11.800Z,9.23
2022-11-29T18:38:13.601Z,9.10
2022-11-29T18:40:14.780Z,10.37
2022-11-29T18:45:13.368Z,7.70
2022-11-29T18:47:46.814Z,7.67
2022-11-29T18:50:16.447Z,9.20
2022-11-29T18:52:53.812Z,7.43
2022-11-29T18:55:31.438Z,10.63
2022-11-29T18:58:01.325Z,10.10
2022-11-29T19:00:32.532Z,10.20
2022-11-29T19:03:02.822Z,9.75
2022-11-29T19:05:32.607Z,8.80
2022-11-29T19:08:03.572Z,10.47
2022-11-29T19:10:33.532Z,12.00
2022-11-29T19:13:06.398Z,13.50
2022-11-29T19:15:36.764Z,16.67
2022-11-29T19:18:06.814Z,15.37
2022-11-29T19:20:36.628Z,16.23
2022-11-29T19:23:06.638Z,17.47
2022-11-29T19:25:37.609Z,18.73
2022-11-29T19:28:13.785Z,16.75
2022-11-29T19:30:40.247Z,17.73
2022-11-29T19:33:10.122Z,17.80
2022-11-29T19:35:40.591Z,17.20
2022-11-29T19:38:10.405Z,16.07
2022-11-29T19:40:43.312Z,17.17
2022-11-29T19:43:15.543Z,18.50
2022-11-29T19:45:45.448Z,19.40
2022-11-29T19:48:15.140Z,17.90
2022-11-29T19:50:44.957Z,18.43
2022-11-29T19:53:16.343Z,17.30
2022-11-29T19:58:17.787Z,17.30
2022-11-29T20:00:47.845Z,20.40
2022-11-29T20:03:17.456Z,18.57
2022-11-29T20:05:55.511Z,16.43
2022-11-29T20:08:26.049Z,18.27
2022-11-29T20:10:56.142Z,18.67
2022-11-29T20:13:25.952Z,19.23
2022-11-29T20:15:55.919Z,18.93
2022-11-29T20:18:27.260Z,18.43
2022-11-29T20:20:57.112Z,17.17
2022-11-29T20:23:29.016Z,19.32
2022-11-29T20:26:01.021Z,21.75
2022-11-29T20:28:31.344Z,19.37
2022-11-29T20:31:06.128Z,19.10
2022-11-29T20:33:36.223Z,17.73
2022-11-29T20:36:19.789Z,16.67
2022-11-29T20:38:53.790Z,20.73
2022-11-29T20:41:35.357Z,18.40
2022-11-29T20:44:06.500Z,21.73
2022-11-29T20:46:54.611Z,21.65
2022-11-29T20:49:24.531Z,22.20
2022-11-29T20:52:01.014Z,21.23
2022-11-29T20:54:31.904Z,20.57
2022-11-29T20:57:01.762Z,19.37
2022-11-29T20:59:31.595Z,20.27
2022-11-29T21:02:02.650Z,18.47
2022-11-29T21:04:32.440Z,20.75
2022-11-29T21:07:02.225Z,17.87
2022-11-29T21:09:32.226Z,12.93
2022-11-29T21:12:04.395Z,17.23
2022-11-29T21:14:34.626Z,18.13
2022-11-29T21:17:05.326Z,18.87
2022-11-29T21:19:36.798Z,18.80
2022-11-29T21:22:19.881Z,19.43
2022-11-29T21:25:10.897Z,20.63
2022-11-29T21:27:42.205Z,19.30
2022-11-29T21:30:23.563Z,21.48
2022-11-29T21:32:55.569Z,19.10
2022-11-29T21:35:26.346Z,19.33
2022-11-29T21:37:59.348Z,21.95
2022-11-29T21:40:29.792Z,20.10
2022-11-29T21:43:00.710Z,20.83
2022-11-29T21:45:30.666Z,19.82
2022-11-29T21:48:02.052Z,21.30
2022-11-29T21:50:31.937Z,21.20
2022-11-29T21:53:02.091Z,20.75
2022-11-29T21:55:32.722Z,20.70
2022-11-29T21:58:02.971Z,21.30
2022-11-29T22:00:37.296Z,20.17
2022-11-29T22:03:04.639Z,21.20
2022-11-29T22:05:34.609Z,21.50
2022-11-29T22:08:05.401Z,22.37
2022-11-29T22:10:35.371Z,21.25
2022-11-29T22:13:12.445Z,21.85
2022-11-29T22:15:44.427Z,20.33
2022-11-29T22:18:19.808Z,20.23
2022-11-29T22:20:50.887Z,20.97
2022-11-29T22:23:20.816Z,19.57
2022-11-29T22:25:50.810Z,20.37
2022-11-29T22:28:24.363Z,22.10
2022-11-29T22:30:54.227Z,23.03
2022-11-29T22:33:24.105Z,22.43
2022-11-29T22:35:54.634Z,24.67
2022-11-29T22:38:26.598Z,21.82
2022-11-29T22:41:02.085Z,23.63
2022-11-29T22:43:33.103Z,23.57
2022-11-29T22:46:17.570Z,20.00
2022-11-29T22:48:55.335Z,22.07
2022-11-29T22:51:27.380Z,21.07
2022-11-29T22:53:58.906Z,22.27
2022-11-29T22:56:31.583Z,20.00
2022-11-29T22:59:01.659Z,20.80
2022-11-29T23:01:33.905Z,19.90
2022-11-29T23:04:07.180Z,23.83
2022-11-29T23:06:41.284Z,21.68
2022-11-29T23:09:16.589Z,22.97
2022-11-29T23:11:49.286Z,23.90
2022-11-29T23:14:22.333Z,20.47
2022-11-29T23:16:54.646Z,21.50
2022-11-29T23:19:24.371Z,21.43
2022-11-29T23:21:55.889Z,24.43
2022-11-29T23:24:25.715Z,22.43
2022-11-29T23:26:57.104Z,23.00
2022-11-29T23:29:27.020Z,23.05
2022-11-29T23:31:56.945Z,16.50
2022-11-29T23:34:26.667Z,21.23
2022-11-29T23:37:04.522Z,21.73
2022-11-29T23:39:37.508Z,23.63
2022-11-29T23:42:07.147Z,21.67
2022-11-29T23:44:36.982Z,22.47
2022-11-29T23:47:07.145Z,22.93
2022-11-29T23:49:38.617Z,21.67
2022-11-29T23:52:08.409Z,21.30
2022-11-29T23:54:38.249Z,20.30
2022-11-29T23:57:08.112Z,22.80
2022-11-29T23:59:38.117Z,21.73
